sensor_id;sensor_type;location;lat;lon;timestamp;pressure;altitude;pressure_sealevel;temperature;humidity
60244;BME280;46106;51.468;5.814;2024-03-23T07:48:24;100707.06;;;6.54;100.00
60244;BME280;46106;51.468;5.814;2024-03-23T07:51:16;100718.31;;;7.04;100.00
60244;BME280;46106;51.468;5.814;2024-03-23T07:53:43;100715.38;;;6.66;100.00
60244;BME280;46106;51.468;5.814;2024-03-23T07:56:10;100709.53;;;6.86;100.00
60244;BME280;46106;51.468;5.814;2024-03-23T07:58:36;100716.19;;;6.68;100.00
60244;BME280;46106;51.468;5.814;2024-03-23T08:01:09;100713.13;;;7.14;100.00
60244;BME280;46106;51.468;5.814;2024-03-23T08:03:37;100719.94;;;7.34;100.00
60244;BME280;46106;51.468;5.814;2024-03-23T08:06:21;100705.09;;;7.65;100.00
60244;BME280;46106;51.468;5.814;2024-03-23T08:08:51;100703.66;;;7.47;100.00
60244;BME280;46106;51.468;5.814;2024-03-23T08:11:28;100706.44;;;7.72;100.00
60244;BME280;46106;51.468;5.814;2024-03-23T08:13:54;100709.72;;;7.90;100.00
60244;BME280;46106;51.468;5.814;2024-03-23T08:16:20;100708.38;;;7.83;100.00
60244;BME280;46106;51.468;5.814;2024-03-23T08:18:45;100711.22;;;8.33;100.00
60244;BME280;46106;51.468;5.814;2024-03-23T08:21:11;100701.41;;;8.05;100.00
60244;BME280;46106;51.468;5.814;2024-03-23T08:23:36;100704.69;;;8.49;100.00
60244;BME280;46106;51.468;5.814;2024-03-23T08:26:11;100712.63;;;8.39;100.00
60244;BME280;46106;51.468;5.814;2024-03-23T08:28:38;100700.75;;;8.40;100.00
60244;BME280;46106;51.468;5.814;2024-03-23T08:31:05;100699.81;;;8.78;100.00
60244;BME280;46106;51.468;5.814;2024-03-23T08:33:31;100703.72;;;8.11;100.00
60244;BME280;46106;51.468;5.814;2024-03-23T08:36:05;100699.28;;;8.73;100.00
60244;BME280;46106;51.468;5.814;2024-03-23T08:38:31;100691.78;;;8.38;100.00
60244;BME280;46106;51.468;5.814;2024-03-23T08:41:04;100689.69;;;8.67;100.00
60244;BME280;46106;51.468;5.814;2024-03-23T08:43:31;100690.59;;;8.42;100.00
60244;BME280;46106;51.468;5.814;2024-03-23T08:46:10;100694.91;;;9.31;100.00
60244;BME280;46106;51.468;5.814;2024-03-23T08:48:37;100696.34;;;9.48;100.00
60244;BME280;46106;51.468;5.814;2024-03-23T08:51:04;100693.44;;;9.14;100.00
60244;BME280;46106;51.468;5.814;2024-03-23T08:53:30;100702.25;;;8.70;100.00
60244;BME280;46106;51.468;5.814;2024-03-23T08:55:56;100699.59;;;8.81;100.00
60244;BME280;46106;51.468;5.814;2024-03-23T08:58:24;100697.31;;;9.12;100.00
60244;BME280;46106;51.468;5.814;2024-03-23T09:00:53;100701.59;;;8.66;100.00
60244;BME280;46106;51.468;5.814;2024-03-23T09:03:21;100702.06;;;8.47;100.00
60244;BME280;46106;51.468;5.814;2024-03-23T09:05:46;100696.56;;;9.21;100.00
60244;BME280;46106;51.468;5.814;2024-03-23T09:08:12;100690.53;;;9.05;100.00
60244;BME280;46106;51.468;5.814;2024-03-23T09:10:41;100687.44;;;8.48;100.00
60244;BME280;46106;51.468;5.814;2024-03-23T09:13:07;100697.59;;;8.20;100.00
60244;BME280;46106;51.468;5.814;2024-03-23T09:15:34;100692.47;;;7.90;100.00
60244;BME280;46106;51.468;5.814;2024-03-23T09:18:00;100693.69;;;7.86;100.00
60244;BME280;46106;51.468;5.814;2024-03-23T09:20:25;100691.59;;;7.77;100.00
60244;BME280;46106;51.468;5.814;2024-03-23T09:22:51;100701.06;;;7.58;100.00
60244;BME280;46106;51.468;5.814;2024-03-23T09:25:16;100719.34;;;7.43;100.00
60244;BME280;46106;51.468;5.814;2024-03-23T09:27:42;100726.78;;;6.72;100.00
60244;BME280;46106;51.468;5.814;2024-03-23T09:30:07;100748.84;;;6.39;100.00
60244;BME280;46106;51.468;5.814;2024-03-23T09:32:33;100737.59;;;5.86;100.00
60244;BME280;46106;51.468;5.814;2024-03-23T09:34:58;100720.97;;;5.31;100.00
60244;BME280;46106;51.468;5.814;2024-03-23T09:37:23;100710.38;;;5.27;100.00
60244;BME280;46106;51.468;5.814;2024-03-23T09:39:49;100711.84;;;5.63;100.00
60244;BME280;46106;51.468;5.814;2024-03-23T09:42:14;100696.78;;;7.14;100.00
60244;BME280;46106;51.468;5.814;2024-03-23T09:44:40;100692.16;;;7.95;100.00
60244;BME280;46106;51.468;5.814;2024-03-23T09:47:06;100701.06;;;8.61;100.00
60244;BME280;46106;51.468;5.814;2024-03-23T09:49:33;100702.00;;;8.86;100.00
60244;BME280;46106;51.468;5.814;2024-03-23T09:52:02;100701.28;;;8.32;100.00
60244;BME280;46106;51.468;5.814;2024-03-23T09:54:27;100691.94;;;8.23;100.00
60244;BME280;46106;51.468;5.814;2024-03-23T09:56:53;100698.13;;;8.00;100.00
60244;BME280;46106;51.468;5.814;2024-03-23T09:59:18;100699.88;;;7.88;100.00
60244;BME280;46106;51.468;5.814;2024-03-23T10:01:43;100694.53;;;7.86;100.00
60244;BME280;46106;51.468;5.814;2024-03-23T10:04:09;100687.56;;;8.21;100.00
60244;BME280;46106;51.468;5.814;2024-03-23T10:06:35;100694.91;;;8.70;100.00
60244;BME280;46106;51.468;5.814;2024-03-23T10:09:01;100687.56;;;9.08;100.00
60244;BME280;46106;51.468;5.814;2024-03-23T10:11:27;100684.16;;;8.93;100.00
60244;BME280;46106;51.468;5.814;2024-03-23T10:13:54;100688.22;;;9.11;100.00
60244;BME280;46106;51.468;5.814;2024-03-23T10:16:22;100682.50;;;9.38;100.00
60244;BME280;46106;51.468;5.814;2024-03-23T10:18:48;100682.22;;;9.30;100.00
60244;BME280;46106;51.468;5.814;2024-03-23T10:21:15;100687.34;;;9.11;100.00
60244;BME280;46106;51.468;5.814;2024-03-23T10:23:42;100684.97;;;9.06;100.00
60244;BME280;46106;51.468;5.814;2024-03-23T10:37:26;100690.72;;;8.27;100.00
60244;BME280;46106;51.468;5.814;2024-03-23T10:39:51;100684.72;;;7.71;100.00
60244;BME280;46106;51.468;5.814;2024-03-23T10:42:17;100689.28;;;7.70;100.00
60244;BME280;46106;51.468;5.814;2024-03-23T10:44:42;100680.44;;;7.41;100.00
60244;BME280;46106;51.468;5.814;2024-03-23T10:47:07;100696.19;;;7.36;100.00
60244;BME280;46106;51.468;5.814;2024-03-23T10:49:34;100694.56;;;7.33;100.00
60244;BME280;46106;51.468;5.814;2024-03-23T10:52:03;100696.97;;;8.04;100.00
60244;BME280;46106;51.468;5.814;2024-03-23T10:54:31;100692.41;;;8.67;100.00
60244;BME280;46106;51.468;5.814;2024-03-23T10:57:27;100682.88;;;9.10;100.00
60244;BME280;46106;51.468;5.814;2024-03-23T10:59:55;100675.22;;;9.50;100.00
60244;BME280;46106;51.468;5.814;2024-03-23T11:02:21;100679.22;;;10.16;100.00
60244;BME280;46106;51.468;5.814;2024-03-23T11:04:47;100673.97;;;10.12;100.00
60244;BME280;46106;51.468;5.814;2024-03-23T11:09:53;100676.16;;;10.43;100.00
60244;BME280;46106;51.468;5.814;2024-03-23T11:14:48;100660.91;;;10.73;100.00
60244;BME280;46106;51.468;5.814;2024-03-23T11:17:18;100662.00;;;10.81;100.00
60244;BME280;46106;51.468;5.814;2024-03-23T11:19:43;100652.94;;;10.81;100.00
60244;BME280;46106;51.468;5.814;2024-03-23T11:22:09;100659.56;;;10.22;100.00
60244;BME280;46106;51.468;5.814;2024-03-23T11:24:34;100648.88;;;10.30;100.00
60244;BME280;46106;51.468;5.814;2024-03-23T11:27:00;100640.03;;;10.49;100.00
60244;BME280;46106;51.468;5.814;2024-03-23T11:29:25;100651.22;;;10.69;100.00
60244;BME280;46106;51.468;5.814;2024-03-23T11:31:52;100640.13;;;11.14;100.00
60244;BME280;46106;51.468;5.814;2024-03-23T11:34:18;100643.59;;;10.72;100.00
60244;BME280;46106;51.468;5.814;2024-03-23T11:36:44;100643.38;;;10.07;100.00
60244;BME280;46106;51.468;5.814;2024-03-23T11:39:20;100658.69;;;9.52;100.00
60244;BME280;46106;51.468;5.814;2024-03-23T11:41:50;100645.31;;;9.25;100.00
60244;BME280;46106;51.468;5.814;2024-03-23T11:44:19;100655.63;;;8.97;100.00
60244;BME280;46106;51.468;5.814;2024-03-23T11:46:46;100648.75;;;9.40;100.00
60244;BME280;46106;51.468;5.814;2024-03-23T11:51:46;100649.56;;;9.64;100.00
60244;BME280;46106;51.468;5.814;2024-03-23T11:54:11;100649.38;;;9.19;100.00
60244;BME280;46106;51.468;5.814;2024-03-23T11:56:37;100652.53;;;9.01;100.00
60244;BME280;46106;51.468;5.814;2024-03-23T11:59:02;100641.16;;;9.43;100.00
60244;BME280;46106;51.468;5.814;2024-03-23T12:01:27;100644.63;;;10.03;100.00
60244;BME280;46106;51.468;5.814;2024-03-23T12:03:53;100648.91;;;9.61;100.00
60244;BME280;46106;51.468;5.814;2024-03-23T12:06:19;100638.50;;;9.77;100.00
60244;BME280;46106;51.468;5.814;2024-03-23T12:08:45;100646.69;;;9.66;100.00
60244;BME280;46106;51.468;5.814;2024-03-23T12:11:11;100648.28;;;9.57;100.00
60244;BME280;46106;51.468;5.814;2024-03-23T12:13:37;100647.34;;;9.34;100.00
60244;BME280;46106;51.468;5.814;2024-03-23T12:16:14;100655.94;;;9.16;100.00
60244;BME280;46106;51.468;5.814;2024-03-23T12:18:41;100662.13;;;8.83;100.00
60244;BME280;46106;51.468;5.814;2024-03-23T12:21:07;100663.31;;;8.42;100.00
60244;BME280;46106;51.468;5.814;2024-03-23T12:23:33;100659.50;;;8.32;100.00
60244;BME280;46106;51.468;5.814;2024-03-23T12:25:59;100661.94;;;8.10;100.00
60244;BME280;46106;51.468;5.814;2024-03-23T12:28:24;100668.47;;;7.95;100.00
60244;BME280;46106;51.468;5.814;2024-03-23T12:30:50;100662.94;;;7.71;100.00
60244;BME280;46106;51.468;5.814;2024-03-23T12:33:15;100677.63;;;7.68;100.00
60244;BME280;46106;51.468;5.814;2024-03-23T12:35:40;100679.97;;;7.34;100.00
60244;BME280;46106;51.468;5.814;2024-03-23T12:38:05;100667.41;;;7.19;100.00
60244;BME280;46106;51.468;5.814;2024-03-23T12:40:31;100660.25;;;7.31;100.00
60244;BME280;46106;51.468;5.814;2024-03-23T12:42:56;100649.84;;;7.63;100.00
60244;BME280;46106;51.468;5.814;2024-03-23T12:45:22;100641.41;;;8.43;100.00
60244;BME280;46106;51.468;5.814;2024-03-23T12:47:47;100633.00;;;8.95;100.00
60244;BME280;46106;51.468;5.814;2024-03-23T12:50:13;100643.00;;;8.83;100.00
60244;BME280;46106;51.468;5.814;2024-03-23T12:52:38;100618.44;;;8.83;100.00
60244;BME280;46106;51.468;5.814;2024-03-23T12:55:04;100635.34;;;8.88;100.00
60244;BME280;46106;51.468;5.814;2024-03-23T12:57:30;100634.06;;;9.05;100.00
60244;BME280;46106;51.468;5.814;2024-03-23T12:59:55;100622.69;;;8.87;100.00
60244;BME280;46106;51.468;5.814;2024-03-23T13:02:21;100619.50;;;8.69;100.00
60244;BME280;46106;51.468;5.814;2024-03-23T13:04:50;100628.19;;;8.37;100.00
60244;BME280;46106;51.468;5.814;2024-03-23T13:07:16;100638.41;;;8.83;100.00
60244;BME280;46106;51.468;5.814;2024-03-23T13:09:42;100609.28;;;8.84;100.00
60244;BME280;46106;51.468;5.814;2024-03-23T13:12:07;100626.84;;;8.56;100.00
60244;BME280;46106;51.468;5.814;2024-03-23T13:14:33;100627.88;;;8.79;100.00
60244;BME280;46106;51.468;5.814;2024-03-23T13:16:58;100627.38;;;8.61;100.00
60244;BME280;46106;51.468;5.814;2024-03-23T13:19:26;100648.78;;;8.54;100.00
60244;BME280;46106;51.468;5.814;2024-03-23T13:21:54;100646.41;;;8.50;100.00
60244;BME280;46106;51.468;5.814;2024-03-23T13:24:22;100646.59;;;8.59;100.00
60244;BME280;46106;51.468;5.814;2024-03-23T13:26:47;100645.53;;;8.49;100.00
60244;BME280;46106;51.468;5.814;2024-03-23T13:29:12;100647.66;;;8.70;100.00
60244;BME280;46106;51.468;5.814;2024-03-23T13:31:37;100654.09;;;8.93;100.00
60244;BME280;46106;51.468;5.814;2024-03-23T13:34:03;100636.09;;;9.14;100.00
60244;BME280;46106;51.468;5.814;2024-03-23T13:36:28;100636.09;;;8.90;100.00
60244;BME280;46106;51.468;5.814;2024-03-23T13:38:53;100626.81;;;8.93;100.00
60244;BME280;46106;51.468;5.814;2024-03-23T13:41:19;100628.50;;;9.18;100.00
60244;BME280;46106;51.468;5.814;2024-03-23T13:43:44;100621.59;;;9.25;100.00
60244;BME280;46106;51.468;5.814;2024-03-23T13:46:09;100616.16;;;9.25;100.00
60244;BME280;46106;51.468;5.814;2024-03-23T13:48:34;100609.72;;;9.37;100.00
60244;BME280;46106;51.468;5.814;2024-03-23T13:51:01;100610.75;;;9.12;100.00
60244;BME280;46106;51.468;5.814;2024-03-23T13:53:26;100618.59;;;8.69;100.00
60244;BME280;46106;51.468;5.814;2024-03-23T13:55:51;100609.38;;;8.08;100.00
60244;BME280;46106;51.468;5.814;2024-03-23T13:58:17;100611.47;;;8.42;100.00
60244;BME280;46106;51.468;5.814;2024-03-23T14:00:42;100596.94;;;8.78;100.00
60244;BME280;46106;51.468;5.814;2024-03-23T14:03:12;100608.25;;;8.85;100.00
60244;BME280;46106;51.468;5.814;2024-03-23T14:05:38;100609.91;;;8.88;100.00
60244;BME280;46106;51.468;5.814;2024-03-23T14:08:07;100597.25;;;9.22;100.00
60244;BME280;46106;51.468;5.814;2024-03-23T14:10:33;100584.63;;;8.97;100.00
60244;BME280;46106;51.468;5.814;2024-03-23T14:12:58;100586.19;;;8.88;100.00
60244;BME280;46106;51.468;5.814;2024-03-23T14:15:27;100587.50;;;8.71;100.00
60244;BME280;46106;51.468;5.814;2024-03-23T14:17:52;100584.41;;;8.52;100.00
60244;BME280;46106;51.468;5.814;2024-03-23T14:20:18;100570.47;;;8.31;100.00
60244;BME280;46106;51.468;5.814;2024-03-23T14:22:43;100580.09;;;8.23;100.00
60244;BME280;46106;51.468;5.814;2024-03-23T14:25:08;100586.41;;;8.24;100.00
60244;BME280;46106;51.468;5.814;2024-03-23T14:27:33;100580.06;;;8.36;100.00
60244;BME280;46106;51.468;5.814;2024-03-23T14:29:59;100578.31;;;8.35;100.00
60244;BME280;46106;51.468;5.814;2024-03-23T14:32:24;100583.78;;;8.35;100.00
60244;BME280;46106;51.468;5.814;2024-03-23T14:34:49;100587.38;;;8.36;100.00
60244;BME280;46106;51.468;5.814;2024-03-23T14:37:15;100584.13;;;8.31;100.00
60244;BME280;46106;51.468;5.814;2024-03-23T14:39:40;100585.75;;;8.33;100.00
60244;BME280;46106;51.468;5.814;2024-03-23T14:42:05;100583.53;;;8.51;100.00
60244;BME280;46106;51.468;5.814;2024-03-23T14:44:30;100585.16;;;8.41;100.00
60244;BME280;46106;51.468;5.814;2024-03-23T14:46:56;100583.34;;;8.65;100.00
60244;BME280;46106;51.468;5.814;2024-03-23T14:49:21;100572.09;;;8.94;100.00
60244;BME280;46106;51.468;5.814;2024-03-23T14:51:46;100576.41;;;8.61;100.00
60244;BME280;46106;51.468;5.814;2024-03-23T14:54:12;100578.38;;;8.59;100.00
60244;BME280;46106;51.468;5.814;2024-03-23T14:56:37;100563.44;;;8.52;100.00
60244;BME280;46106;51.468;5.814;2024-03-23T14:59:02;100560.88;;;8.62;100.00
60244;BME280;46106;51.468;5.814;2024-03-23T15:01:28;100545.13;;;8.65;100.00
60244;BME280;46106;51.468;5.814;2024-03-23T15:03:53;100546.44;;;8.73;100.00
60244;BME280;46106;51.468;5.814;2024-03-23T15:06:18;100544.41;;;8.63;100.00
60244;BME280;46106;51.468;5.814;2024-03-23T15:08:44;100531.38;;;8.67;100.00
60244;BME280;46106;51.468;5.814;2024-03-23T15:11:09;100525.53;;;8.60;100.00
60244;BME280;46106;51.468;5.814;2024-03-23T15:13:35;100527.50;;;8.58;100.00
60244;BME280;46106;51.468;5.814;2024-03-23T15:16:01;100530.91;;;8.73;100.00
60244;BME280;46106;51.468;5.814;2024-03-23T15:18:27;100525.78;;;8.93;100.00
60244;BME280;46106;51.468;5.814;2024-03-23T15:20:56;100499.75;;;8.64;100.00
60244;BME280;46106;51.468;5.814;2024-03-23T15:23:22;100504.94;;;8.56;100.00
60244;BME280;46106;51.468;5.814;2024-03-23T15:25:57;100495.84;;;8.56;100.00
60244;BME280;46106;51.468;5.814;2024-03-23T15:28:23;100500.34;;;8.57;100.00
60244;BME280;46106;51.468;5.814;2024-03-23T15:30:49;100501.13;;;8.70;100.00
60244;BME280;46106;51.468;5.814;2024-03-23T15:33:14;100508.19;;;8.61;100.00
60244;BME280;46106;51.468;5.814;2024-03-23T15:35:40;100507.88;;;8.53;100.00
60244;BME280;46106;51.468;5.814;2024-03-23T15:38:05;100520.50;;;8.30;100.00
60244;BME280;46106;51.468;5.814;2024-03-23T15:40:30;100543.66;;;8.24;100.00
60244;BME280;46106;51.468;5.814;2024-03-23T15:42:55;100545.09;;;7.67;100.00
60244;BME280;46106;51.468;5.814;2024-03-23T15:45:21;100542.91;;;7.34;100.00
60244;BME280;46106;51.468;5.814;2024-03-23T15:47:46;100547.50;;;7.21;100.00
60244;BME280;46106;51.468;5.814;2024-03-23T15:50:11;100561.94;;;7.08;100.00
60244;BME280;46106;51.468;5.814;2024-03-23T15:52:37;100559.03;;;6.98;100.00
60244;BME280;46106;51.468;5.814;2024-03-23T15:55:03;100566.41;;;6.96;100.00
60244;BME280;46106;51.468;5.814;2024-03-23T15:57:29;100572.66;;;6.71;100.00
60244;BME280;46106;51.468;5.814;2024-03-23T15:59:54;100577.19;;;6.16;100.00
60244;BME280;46106;51.468;5.814;2024-03-23T16:02:19;100578.66;;;6.07;100.00
60244;BME280;46106;51.468;5.814;2024-03-23T16:04:44;100582.06;;;5.82;100.00
60244;BME280;46106;51.468;5.814;2024-03-23T16:07:10;100591.00;;;5.99;100.00
60244;BME280;46106;51.468;5.814;2024-03-23T16:09:35;100593.03;;;5.66;100.00
60244;BME280;46106;51.468;5.814;2024-03-23T16:12:00;100582.53;;;5.60;100.00
60244;BME280;46106;51.468;5.814;2024-03-23T16:14:26;100583.00;;;5.52;100.00
60244;BME280;46106;51.468;5.814;2024-03-23T16:16:51;100590.97;;;5.41;100.00
60244;BME280;46106;51.468;5.814;2024-03-23T16:19:16;100582.75;;;5.12;100.00
60244;BME280;46106;51.468;5.814;2024-03-23T16:21:42;100578.03;;;5.16;100.00
60244;BME280;46106;51.468;5.814;2024-03-23T16:24:07;100584.94;;;5.22;100.00
60244;BME280;46106;51.468;5.814;2024-03-23T16:26:32;100572.38;;;5.05;100.00
60244;BME280;46106;51.468;5.814;2024-03-23T16:28:57;100581.00;;;5.11;100.00
60244;BME280;46106;51.468;5.814;2024-03-23T16:31:23;100582.41;;;5.19;100.00
60244;BME280;46106;51.468;5.814;2024-03-23T16:33:48;100592.97;;;5.23;100.00
60244;BME280;46106;51.468;5.814;2024-03-23T16:36:13;100585.75;;;5.08;100.00
60244;BME280;46106;51.468;5.814;2024-03-23T16:38:40;100573.19;;;5.07;100.00
60244;BME280;46106;51.468;5.814;2024-03-23T16:41:08;100569.47;;;5.08;100.00
60244;BME280;46106;51.468;5.814;2024-03-23T16:43:34;100569.50;;;5.22;100.00
60244;BME280;46106;51.468;5.814;2024-03-23T16:46:02;100578.69;;;5.20;100.00
60244;BME280;46106;51.468;5.814;2024-03-23T16:48:28;100577.19;;;5.30;100.00
60244;BME280;46106;51.468;5.814;2024-03-23T16:50:56;100576.38;;;5.28;100.00
60244;BME280;46106;51.468;5.814;2024-03-23T16:53:21;100566.69;;;5.24;100.00
60244;BME280;46106;51.468;5.814;2024-03-23T16:55:54;100564.25;;;5.19;100.00
60244;BME280;46106;51.468;5.814;2024-03-23T16:58:19;100550.91;;;5.30;100.00
60244;BME280;46106;51.468;5.814;2024-03-23T17:00:45;100545.25;;;5.05;100.00
60244;BME280;46106;51.468;5.814;2024-03-23T17:03:10;100542.56;;;5.19;100.00
60244;BME280;46106;51.468;5.814;2024-03-23T17:05:36;100535.38;;;5.18;100.00
60244;BME280;46106;51.468;5.814;2024-03-23T17:08:02;100530.63;;;5.07;100.00
60244;BME280;46106;51.468;5.814;2024-03-23T17:10:28;100526.16;;;5.06;100.00
60244;BME280;46106;51.468;5.814;2024-03-23T17:12:54;100524.13;;;5.10;100.00
60244;BME280;46106;51.468;5.814;2024-03-23T17:15:22;100499.69;;;5.10;100.00
60244;BME280;46106;51.468;5.814;2024-03-23T17:17:48;100499.81;;;5.23;100.00
60244;BME280;46106;51.468;5.814;2024-03-23T17:20:13;100502.13;;;5.14;100.00
60244;BME280;46106;51.468;5.814;2024-03-23T17:22:39;100506.03;;;5.25;100.00
60244;BME280;46106;51.468;5.814;2024-03-23T17:25:05;100510.84;;;5.20;100.00
60244;BME280;46106;51.468;5.814;2024-03-23T17:27:30;100507.28;;;5.19;100.00
60244;BME280;46106;51.468;5.814;2024-03-23T17:29:55;100506.69;;;5.14;100.00
60244;BME280;46106;51.468;5.814;2024-03-23T17:32:21;100505.75;;;5.15;100.00
60244;BME280;46106;51.468;5.814;2024-03-23T17:34:46;100506.59;;;5.15;100.00
60244;BME280;46106;51.468;5.814;2024-03-23T17:37:11;100504.19;;;5.25;100.00
60244;BME280;46106;51.468;5.814;2024-03-23T17:39:37;100501.16;;;5.15;100.00
60244;BME280;46106;51.468;5.814;2024-03-23T17:42:02;100490.81;;;5.22;100.00
60244;BME280;46106;51.468;5.814;2024-03-23T17:44:27;100501.47;;;5.25;100.00
60244;BME280;46106;51.468;5.814;2024-03-23T17:46:52;100501.84;;;5.19;100.00
60244;BME280;46106;51.468;5.814;2024-03-23T17:49:18;100497.78;;;5.26;100.00
60244;BME280;46106;51.468;5.814;2024-03-23T17:51:43;100510.59;;;5.39;100.00
60244;BME280;46106;51.468;5.814;2024-03-23T17:54:09;100502.06;;;5.45;100.00
60244;BME280;46106;51.468;5.814;2024-03-23T17:56:34;100493.00;;;5.44;100.00
60244;BME280;46106;51.468;5.814;2024-03-23T17:58:59;100488.56;;;5.43;100.00
60244;BME280;46106;51.468;5.814;2024-03-23T18:01:25;100484.72;;;5.33;100.00
60244;BME280;46106;51.468;5.814;2024-03-23T18:03:52;100476.06;;;5.41;100.00
60244;BME280;46106;51.468;5.814;2024-03-23T18:06:17;100499.25;;;5.46;100.00
60244;BME280;46106;51.468;5.814;2024-03-23T18:08:47;100502.06;;;5.45;100.00
60244;BME280;46106;51.468;5.814;2024-03-23T18:11:12;100522.03;;;5.58;100.00
60244;BME280;46106;51.468;5.814;2024-03-23T18:13:37;100528.22;;;5.60;100.00
60244;BME280;46106;51.468;5.814;2024-03-23T18:16:03;100533.84;;;5.57;100.00
60244;BME280;46106;51.468;5.814;2024-03-23T18:18:29;100518.34;;;5.59;100.00
60244;BME280;46106;51.468;5.814;2024-03-23T18:20:54;100520.66;;;5.65;100.00
60244;BME280;46106;51.468;5.814;2024-03-23T18:23:19;100517.75;;;5.54;100.00
60244;BME280;46106;51.468;5.814;2024-03-23T18:25:54;100513.41;;;5.51;100.00
60244;BME280;46106;51.468;5.814;2024-03-23T18:28:19;100527.66;;;5.55;100.00
60244;BME280;46106;51.468;5.814;2024-03-23T18:30:44;100518.91;;;5.50;100.00
60244;BME280;46106;51.468;5.814;2024-03-23T18:33:10;100518.72;;;5.53;100.00
60244;BME280;46106;51.468;5.814;2024-03-23T18:35:35;100516.22;;;5.64;100.00
60244;BME280;46106;51.468;5.814;2024-03-23T18:38:01;100514.72;;;5.59;100.00
60244;BME280;46106;51.468;5.814;2024-03-23T18:40:26;100514.84;;;5.57;100.00
60244;BME280;46106;51.468;5.814;2024-03-23T18:42:51;100513.19;;;5.55;100.00
60244;BME280;46106;51.468;5.814;2024-03-23T18:45:16;100506.97;;;5.52;100.00
60244;BME280;46106;51.468;5.814;2024-03-23T18:47:42;100512.91;;;5.59;100.00
60244;BME280;46106;51.468;5.814;2024-03-23T18:50:07;100502.72;;;5.63;100.00
60244;BME280;46106;51.468;5.814;2024-03-23T18:52:32;100512.69;;;5.62;100.00
60244;BME280;46106;51.468;5.814;2024-03-23T18:54:58;100503.59;;;5.49;100.00
60244;BME280;46106;51.468;5.814;2024-03-23T18:57:23;100521.34;;;5.55;100.00
60244;BME280;46106;51.468;5.814;2024-03-23T18:59:48;100518.53;;;5.56;100.00
60244;BME280;46106;51.468;5.814;2024-03-23T19:02:13;100528.03;;;5.63;100.00
60244;BME280;46106;51.468;5.814;2024-03-23T19:04:39;100511.94;;;5.60;100.00
60244;BME280;46106;51.468;5.814;2024-03-23T19:07:04;100491.19;;;5.45;100.00
60244;BME280;46106;51.468;5.814;2024-03-23T19:09:29;100503.00;;;5.44;100.00
60244;BME280;46106;51.468;5.814;2024-03-23T19:11:55;100497.78;;;5.41;100.00
60244;BME280;46106;51.468;5.814;2024-03-23T19:14:20;100493.41;;;5.24;100.00
60244;BME280;46106;51.468;5.814;2024-03-23T19:16:45;100490.53;;;5.27;100.00
60244;BME280;46106;51.468;5.814;2024-03-23T19:19:10;100490.03;;;5.20;100.00
60244;BME280;46106;51.468;5.814;2024-03-23T19:21:36;100495.47;;;5.20;100.00
60244;BME280;46106;51.468;5.814;2024-03-23T19:24:01;100503.88;;;5.15;100.00
60244;BME280;46106;51.468;5.814;2024-03-23T19:26:26;100498.16;;;5.06;100.00
60244;BME280;46106;51.468;5.814;2024-03-23T19:28:51;100509.38;;;5.00;100.00
60244;BME280;46106;51.468;5.814;2024-03-23T19:31:19;100504.13;;;4.82;100.00
60244;BME280;46106;51.468;5.814;2024-03-23T19:33:45;100502.84;;;4.73;100.00
60244;BME280;46106;51.468;5.814;2024-03-23T19:36:10;100507.31;;;4.74;100.00
60244;BME280;46106;51.468;5.814;2024-03-23T19:38:35;100499.34;;;4.71;100.00
60244;BME280;46106;51.468;5.814;2024-03-23T19:41:01;100499.31;;;4.57;100.00
60244;BME280;46106;51.468;5.814;2024-03-23T19:43:26;100495.53;;;4.59;100.00
60244;BME280;46106;51.468;5.814;2024-03-23T19:45:51;100487.78;;;4.53;100.00
60244;BME280;46106;51.468;5.814;2024-03-23T19:48:16;100481.19;;;4.57;100.00
60244;BME280;46106;51.468;5.814;2024-03-23T19:50:42;100478.38;;;4.59;100.00
60244;BME280;46106;51.468;5.814;2024-03-23T19:53:07;100480.06;;;4.62;100.00
60244;BME280;46106;51.468;5.814;2024-03-23T19:55:32;100483.63;;;4.62;100.00
60244;BME280;46106;51.468;5.814;2024-03-23T19:57:58;100483.91;;;4.57;100.00
60244;BME280;46106;51.468;5.814;2024-03-23T20:00:23;100473.63;;;4.48;100.00
60244;BME280;46106;51.468;5.814;2024-03-23T20:02:49;100473.72;;;4.47;100.00
60244;BME280;46106;51.468;5.814;2024-03-23T20:05:14;100479.91;;;4.49;100.00
60244;BME280;46106;51.468;5.814;2024-03-23T20:07:39;100479.50;;;4.40;100.00
60244;BME280;46106;51.468;5.814;2024-03-23T20:10:05;100482.38;;;4.37;100.00
60244;BME280;46106;51.468;5.814;2024-03-23T20:12:31;100480.41;;;4.25;100.00
60244;BME280;46106;51.468;5.814;2024-03-23T20:14:56;100478.41;;;4.29;100.00
60244;BME280;46106;51.468;5.814;2024-03-23T20:17:21;100476.38;;;4.32;100.00
60244;BME280;46106;51.468;5.814;2024-03-23T20:19:46;100472.88;;;4.30;100.00
60244;BME280;46106;51.468;5.814;2024-03-23T20:22:12;100469.50;;;4.27;100.00
60244;BME280;46106;51.468;5.814;2024-03-23T20:24:37;100463.91;;;4.30;100.00
60244;BME280;46106;51.468;5.814;2024-03-23T20:27:02;100458.75;;;4.25;100.00
60244;BME280;46106;51.468;5.814;2024-03-23T20:29:28;100460.56;;;4.24;100.00
60244;BME280;46106;51.468;5.814;2024-03-23T20:31:53;100456.44;;;4.33;100.00
60244;BME280;46106;51.468;5.814;2024-03-23T20:34:19;100455.75;;;4.30;100.00
60244;BME280;46106;51.468;5.814;2024-03-23T20:36:44;100447.53;;;4.31;100.00
60244;BME280;46106;51.468;5.814;2024-03-23T20:39:09;100446.81;;;4.28;100.00
60244;BME280;46106;51.468;5.814;2024-03-23T20:41:34;100449.81;;;4.23;100.00
60244;BME280;46106;51.468;5.814;2024-03-23T20:44:00;100438.97;;;4.23;100.00
60244;BME280;46106;51.468;5.814;2024-03-23T20:46:25;100440.63;;;4.26;100.00
60244;BME280;46106;51.468;5.814;2024-03-23T20:48:50;100442.41;;;4.27;100.00
60244;BME280;46106;51.468;5.814;2024-03-23T20:51:17;100454.97;;;4.28;100.00